Admire, Kansas
Current Conditions -  °F | °C
As of 5:53 PM on Thursday 27 Nov 2014 (Local Time) from KEMP Reporting Station
Clear Clear  
Wind Chill: -3°   Ceiling: Unl
Heat Index:   Visibility: 10mi
Dew Point: -8°   Wind: 9mph
Humidity: 52%   Direction: 150°SSE
Pressure: 30.31"   Gusts: NA
Location:  38.64°N, 96.1°W
Report Text: KEMP 272353Z AUTO 15008KT 10SM CLR 01/M08 A3031 RMK AO2 SLP280 T00111078 10056 20006 56017
Loading
Personal Weather Stations






























Interactive Weather Map New forecast layout! Learn more

10-Day Weather Forecast

Advertisements
Track Severe Weather on mobile